sensor_id;sensor_type;location;lat;lon;timestamp;P1;durP1;ratioP1;P2;durP2;ratioP2
59006;SDS011;44792;52.760;6.726;2023-11-21T00:00:49;29.05;;;11.85;;
59006;SDS011;44792;52.760;6.726;2023-11-21T00:03:14;27.20;;;14.27;;
59006;SDS011;44792;52.760;6.726;2023-11-21T00:05:43;29.30;;;12.50;;
59006;SDS011;44792;52.760;6.726;2023-11-21T00:08:09;29.92;;;12.60;;
59006;SDS011;44792;52.760;6.726;2023-11-21T00:10:35;31.52;;;13.52;;
59006;SDS011;44792;52.760;6.726;2023-11-21T00:13:03;25.13;;;12.50;;
59006;SDS011;44792;52.760;6.726;2023-11-21T00:15:29;32.10;;;12.88;;
59006;SDS011;44792;52.760;6.726;2023-11-21T00:17:55;32.47;;;13.20;;
59006;SDS011;44792;52.760;6.726;2023-11-21T00:20:21;28.25;;;13.10;;
59006;SDS011;44792;52.760;6.726;2023-11-21T00:22:47;29.63;;;13.10;;
59006;SDS011;44792;52.760;6.726;2023-11-21T00:25:13;28.25;;;13.35;;
59006;SDS011;44792;52.760;6.726;2023-11-21T00:27:40;30.38;;;13.20;;
59006;SDS011;44792;52.760;6.726;2023-11-21T00:30:07;32.75;;;14.82;;
59006;SDS011;44792;52.760;6.726;2023-11-21T00:32:35;28.52;;;13.77;;
59006;SDS011;44792;52.760;6.726;2023-11-21T00:35:02;35.45;;;14.52;;
59006;SDS011;44792;52.760;6.726;2023-11-21T00:37:27;35.10;;;14.68;;
59006;SDS011;44792;52.760;6.726;2023-11-21T00:39:53;32.50;;;13.20;;
59006;SDS011;44792;52.760;6.726;2023-11-21T00:42:19;34.53;;;13.85;;
59006;SDS011;44792;52.760;6.726;2023-11-21T00:44:44;32.70;;;14.18;;
59006;SDS011;44792;52.760;6.726;2023-11-21T00:47:10;32.42;;;13.45;;
59006;SDS011;44792;52.760;6.726;2023-11-21T00:49:36;37.30;;;14.32;;
59006;SDS011;44792;52.760;6.726;2023-11-21T00:52:04;30.38;;;14.02;;
59006;SDS011;44792;52.760;6.726;2023-11-21T00:54:30;29.20;;;14.52;;
59006;SDS011;44792;52.760;6.726;2023-11-21T00:56:56;29.52;;;13.27;;
59006;SDS011;44792;52.760;6.726;2023-11-21T00:59:22;28.70;;;14.27;;
59006;SDS011;44792;52.760;6.726;2023-11-21T01:01:48;30.30;;;14.55;;
59006;SDS011;44792;52.760;6.726;2023-11-21T01:04:14;32.80;;;14.40;;
59006;SDS011;44792;52.760;6.726;2023-11-21T01:06:39;31.65;;;15.40;;
59006;SDS011;44792;52.760;6.726;2023-11-21T01:09:05;32.80;;;15.70;;
59006;SDS011;44792;52.760;6.726;2023-11-21T01:11:34;44.95;;;17.20;;
59006;SDS011;44792;52.760;6.726;2023-11-21T01:14:02;41.05;;;16.23;;
59006;SDS011;44792;52.760;6.726;2023-11-21T01:16:33;41.20;;;15.27;;
59006;SDS011;44792;52.760;6.726;2023-11-21T01:18:59;32.78;;;15.63;;
59006;SDS011;44792;52.760;6.726;2023-11-21T01:21:26;38.92;;;15.07;;
59006;SDS011;44792;52.760;6.726;2023-11-21T01:23:53;43.40;;;15.70;;
59006;SDS011;44792;52.760;6.726;2023-11-21T01:26:20;32.35;;;15.57;;
59006;SDS011;44792;52.760;6.726;2023-11-21T01:28:46;29.80;;;14.68;;
59006;SDS011;44792;52.760;6.726;2023-11-21T01:31:14;33.88;;;15.18;;
59006;SDS011;44792;52.760;6.726;2023-11-21T01:33:40;33.72;;;14.52;;
59006;SDS011;44792;52.760;6.726;2023-11-21T01:36:06;33.83;;;15.88;;
59006;SDS011;44792;52.760;6.726;2023-11-21T01:38:32;29.42;;;14.38;;
59006;SDS011;44792;52.760;6.726;2023-11-21T01:40:58;33.35;;;14.57;;
59006;SDS011;44792;52.760;6.726;2023-11-21T01:43:26;36.90;;;15.07;;
59006;SDS011;44792;52.760;6.726;2023-11-21T01:45:52;32.42;;;15.13;;
59006;SDS011;44792;52.760;6.726;2023-11-21T01:48:24;30.23;;;14.77;;
59006;SDS011;44792;52.760;6.726;2023-11-21T01:50:51;31.75;;;15.18;;
59006;SDS011;44792;52.760;6.726;2023-11-21T01:53:16;31.30;;;14.20;;
59006;SDS011;44792;52.760;6.726;2023-11-21T01:55:43;33.78;;;14.23;;
59006;SDS011;44792;52.760;6.726;2023-11-21T01:58:10;36.35;;;15.48;;
59006;SDS011;44792;52.760;6.726;2023-11-21T02:00:37;36.35;;;15.70;;
59006;SDS011;44792;52.760;6.726;2023-11-21T02:03:03;33.20;;;14.05;;
59006;SDS011;44792;52.760;6.726;2023-11-21T02:05:29;33.40;;;14.85;;
59006;SDS011;44792;52.760;6.726;2023-11-21T02:07:55;41.33;;;15.55;;
59006;SDS011;44792;52.760;6.726;2023-11-21T02:10:21;32.88;;;14.70;;
59006;SDS011;44792;52.760;6.726;2023-11-21T02:12:48;35.88;;;15.85;;
59006;SDS011;44792;52.760;6.726;2023-11-21T02:15:17;32.60;;;16.30;;
59006;SDS011;44792;52.760;6.726;2023-11-21T02:17:48;33.20;;;15.13;;
59006;SDS011;44792;52.760;6.726;2023-11-21T02:20:19;33.35;;;13.90;;
59006;SDS011;44792;52.760;6.726;2023-11-21T02:22:50;34.47;;;14.27;;
59006;SDS011;44792;52.760;6.726;2023-11-21T02:25:29;35.45;;;15.07;;
59006;SDS011;44792;52.760;6.726;2023-11-21T02:27:56;33.13;;;14.13;;
59006;SDS011;44792;52.760;6.726;2023-11-21T02:30:23;33.25;;;14.43;;
59006;SDS011;44792;52.760;6.726;2023-11-21T02:32:50;31.17;;;14.13;;
59006;SDS011;44792;52.760;6.726;2023-11-21T02:35:19;32.03;;;14.55;;
59006;SDS011;44792;52.760;6.726;2023-11-21T02:37:49;30.23;;;14.30;;
59006;SDS011;44792;52.760;6.726;2023-11-21T02:40:15;30.70;;;14.18;;
59006;SDS011;44792;52.760;6.726;2023-11-21T02:42:46;35.22;;;15.10;;
59006;SDS011;44792;52.760;6.726;2023-11-21T02:45:13;32.45;;;14.48;;
59006;SDS011;44792;52.760;6.726;2023-11-21T02:47:41;37.45;;;14.15;;
59006;SDS011;44792;52.760;6.726;2023-11-21T02:50:10;35.72;;;14.68;;
59006;SDS011;44792;52.760;6.726;2023-11-21T02:52:36;36.20;;;15.23;;
59006;SDS011;44792;52.760;6.726;2023-11-21T02:55:03;33.33;;;14.50;;
59006;SDS011;44792;52.760;6.726;2023-11-21T02:57:29;32.78;;;14.15;;
59006;SDS011;44792;52.760;6.726;2023-11-21T02:59:54;30.95;;;14.00;;
59006;SDS011;44792;52.760;6.726;2023-11-21T03:02:20;36.60;;;14.80;;
59006;SDS011;44792;52.760;6.726;2023-11-21T03:04:47;33.55;;;14.20;;
59006;SDS011;44792;52.760;6.726;2023-11-21T03:07:14;32.67;;;14.68;;
59006;SDS011;44792;52.760;6.726;2023-11-21T03:09:40;31.77;;;13.70;;
59006;SDS011;44792;52.760;6.726;2023-11-21T03:12:06;26.73;;;12.82;;
59006;SDS011;44792;52.760;6.726;2023-11-21T03:14:32;29.35;;;13.45;;
59006;SDS011;44792;52.760;6.726;2023-11-21T03:16:57;32.90;;;13.80;;
59006;SDS011;44792;52.760;6.726;2023-11-21T03:19:23;36.60;;;13.63;;
59006;SDS011;44792;52.760;6.726;2023-11-21T03:21:48;36.58;;;14.27;;
59006;SDS011;44792;52.760;6.726;2023-11-21T03:24:14;32.70;;;13.73;;
59006;SDS011;44792;52.760;6.726;2023-11-21T03:26:45;31.80;;;14.60;;
59006;SDS011;44792;52.760;6.726;2023-11-21T03:29:11;30.42;;;14.60;;
59006;SDS011;44792;52.760;6.726;2023-11-21T03:31:37;32.60;;;14.38;;
59006;SDS011;44792;52.760;6.726;2023-11-21T03:34:03;28.75;;;13.27;;
59006;SDS011;44792;52.760;6.726;2023-11-21T03:36:29;28.00;;;12.48;;
59006;SDS011;44792;52.760;6.726;2023-11-21T03:38:54;34.70;;;13.95;;
59006;SDS011;44792;52.760;6.726;2023-11-21T03:41:20;30.45;;;13.70;;
59006;SDS011;44792;52.760;6.726;2023-11-21T03:43:46;30.15;;;13.23;;
59006;SDS011;44792;52.760;6.726;2023-11-21T03:46:12;38.38;;;14.73;;
59006;SDS011;44792;52.760;6.726;2023-11-21T03:48:38;33.00;;;14.15;;
59006;SDS011;44792;52.760;6.726;2023-11-21T03:51:04;36.10;;;14.48;;
59006;SDS011;44792;52.760;6.726;2023-11-21T03:53:29;39.10;;;15.50;;
59006;SDS011;44792;52.760;6.726;2023-11-21T03:55:55;37.67;;;15.15;;
59006;SDS011;44792;52.760;6.726;2023-11-21T03:58:22;32.35;;;13.70;;
59006;SDS011;44792;52.760;6.726;2023-11-21T04:00:48;31.73;;;13.68;;
59006;SDS011;44792;52.760;6.726;2023-11-21T04:03:16;37.40;;;15.18;;
59006;SDS011;44792;52.760;6.726;2023-11-21T04:05:42;33.88;;;13.15;;
59006;SDS011;44792;52.760;6.726;2023-11-21T04:08:08;33.03;;;13.75;;
59006;SDS011;44792;52.760;6.726;2023-11-21T04:10:33;32.58;;;12.93;;
59006;SDS011;44792;52.760;6.726;2023-11-21T04:12:59;30.92;;;12.77;;
59006;SDS011;44792;52.760;6.726;2023-11-21T04:15:25;35.38;;;14.68;;
59006;SDS011;44792;52.760;6.726;2023-11-21T04:17:51;39.70;;;13.95;;
59006;SDS011;44792;52.760;6.726;2023-11-21T04:20:17;34.20;;;13.52;;
59006;SDS011;44792;52.760;6.726;2023-11-21T04:22:43;38.67;;;15.30;;
59006;SDS011;44792;52.760;6.726;2023-11-21T04:25:14;32.08;;;14.73;;
59006;SDS011;44792;52.760;6.726;2023-11-21T04:27:40;33.65;;;14.38;;
59006;SDS011;44792;52.760;6.726;2023-11-21T04:30:08;32.35;;;14.77;;
59006;SDS011;44792;52.760;6.726;2023-11-21T04:32:35;35.67;;;14.90;;
59006;SDS011;44792;52.760;6.726;2023-11-21T04:35:01;33.63;;;15.73;;
59006;SDS011;44792;52.760;6.726;2023-11-21T04:37:27;38.97;;;14.80;;
59006;SDS011;44792;52.760;6.726;2023-11-21T04:39:52;33.83;;;13.98;;
59006;SDS011;44792;52.760;6.726;2023-11-21T04:42:18;35.55;;;14.70;;
59006;SDS011;44792;52.760;6.726;2023-11-21T04:44:44;30.92;;;13.93;;
59006;SDS011;44792;52.760;6.726;2023-11-21T04:47:09;38.05;;;15.65;;
59006;SDS011;44792;52.760;6.726;2023-11-21T04:49:36;31.88;;;14.30;;
59006;SDS011;44792;52.760;6.726;2023-11-21T04:52:01;30.30;;;14.30;;
59006;SDS011;44792;52.760;6.726;2023-11-21T04:54:28;33.88;;;13.18;;
59006;SDS011;44792;52.760;6.726;2023-11-21T04:56:55;30.77;;;13.85;;
59006;SDS011;44792;52.760;6.726;2023-11-21T04:59:21;28.17;;;13.15;;
59006;SDS011;44792;52.760;6.726;2023-11-21T05:01:50;29.83;;;14.02;;
59006;SDS011;44792;52.760;6.726;2023-11-21T05:04:15;30.80;;;13.70;;
59006;SDS011;44792;52.760;6.726;2023-11-21T05:06:41;32.35;;;13.93;;
59006;SDS011;44792;52.760;6.726;2023-11-21T05:09:07;28.33;;;13.48;;
59006;SDS011;44792;52.760;6.726;2023-11-21T05:11:36;32.95;;;13.10;;
59006;SDS011;44792;52.760;6.726;2023-11-21T05:14:03;28.80;;;13.07;;
59006;SDS011;44792;52.760;6.726;2023-11-21T05:16:33;32.05;;;14.13;;
59006;SDS011;44792;52.760;6.726;2023-11-21T05:19:00;31.02;;;14.02;;
59006;SDS011;44792;52.760;6.726;2023-11-21T05:21:26;29.15;;;13.05;;
59006;SDS011;44792;52.760;6.726;2023-11-21T05:23:52;31.83;;;12.82;;
59006;SDS011;44792;52.760;6.726;2023-11-21T05:26:18;33.22;;;14.02;;
59006;SDS011;44792;52.760;6.726;2023-11-21T05:28:44;28.52;;;13.70;;
59006;SDS011;44792;52.760;6.726;2023-11-21T05:31:10;31.83;;;14.10;;
59006;SDS011;44792;52.760;6.726;2023-11-21T05:33:36;33.25;;;14.32;;
59006;SDS011;44792;52.760;6.726;2023-11-21T05:36:02;31.20;;;14.25;;
59006;SDS011;44792;52.760;6.726;2023-11-21T05:38:28;31.13;;;15.23;;
59006;SDS011;44792;52.760;6.726;2023-11-21T05:40:54;26.80;;;14.10;;
59006;SDS011;44792;52.760;6.726;2023-11-21T05:43:20;30.75;;;14.27;;
59006;SDS011;44792;52.760;6.726;2023-11-21T05:45:46;35.50;;;14.48;;
59006;SDS011;44792;52.760;6.726;2023-11-21T05:48:11;35.58;;;14.30;;
59006;SDS011;44792;52.760;6.726;2023-11-21T05:50:37;34.92;;;14.10;;
59006;SDS011;44792;52.760;6.726;2023-11-21T05:53:03;33.83;;;13.93;;
59006;SDS011;44792;52.760;6.726;2023-11-21T05:55:29;30.10;;;14.00;;
59006;SDS011;44792;52.760;6.726;2023-11-21T05:57:55;33.60;;;14.07;;
59006;SDS011;44792;52.760;6.726;2023-11-21T06:00:20;33.90;;;16.20;;
59006;SDS011;44792;52.760;6.726;2023-11-21T06:02:53;39.60;;;16.05;;
59006;SDS011;44792;52.760;6.726;2023-11-21T06:05:19;34.67;;;15.32;;
59006;SDS011;44792;52.760;6.726;2023-11-21T06:07:48;31.90;;;14.52;;
59006;SDS011;44792;52.760;6.726;2023-11-21T06:10:14;36.88;;;14.70;;
59006;SDS011;44792;52.760;6.726;2023-11-21T06:12:42;38.03;;;15.15;;
59006;SDS011;44792;52.760;6.726;2023-11-21T06:15:09;33.47;;;14.60;;
59006;SDS011;44792;52.760;6.726;2023-11-21T06:17:38;28.55;;;14.43;;
59006;SDS011;44792;52.760;6.726;2023-11-21T06:20:05;33.00;;;15.07;;
59006;SDS011;44792;52.760;6.726;2023-11-21T06:22:37;30.13;;;13.70;;
59006;SDS011;44792;52.760;6.726;2023-11-21T06:25:06;42.75;;;14.90;;
59006;SDS011;44792;52.760;6.726;2023-11-21T06:27:43;34.97;;;14.05;;
59006;SDS011;44792;52.760;6.726;2023-11-21T06:30:10;32.95;;;14.15;;
59006;SDS011;44792;52.760;6.726;2023-11-21T06:32:37;31.30;;;14.70;;
59006;SDS011;44792;52.760;6.726;2023-11-21T06:35:04;27.92;;;13.02;;
59006;SDS011;44792;52.760;6.726;2023-11-21T06:37:31;34.20;;;14.75;;
59006;SDS011;44792;52.760;6.726;2023-11-21T06:39:58;33.42;;;14.90;;
59006;SDS011;44792;52.760;6.726;2023-11-21T06:42:25;32.00;;;14.13;;
59006;SDS011;44792;52.760;6.726;2023-11-21T06:44:52;35.22;;;14.02;;
59006;SDS011;44792;52.760;6.726;2023-11-21T06:47:19;36.20;;;15.75;;
59006;SDS011;44792;52.760;6.726;2023-11-21T06:49:45;32.10;;;14.38;;
59006;SDS011;44792;52.760;6.726;2023-11-21T06:52:13;32.60;;;14.63;;
59006;SDS011;44792;52.760;6.726;2023-11-21T06:54:39;32.95;;;14.85;;
59006;SDS011;44792;52.760;6.726;2023-11-21T06:57:04;36.67;;;15.70;;
59006;SDS011;44792;52.760;6.726;2023-11-21T06:59:30;31.33;;;14.73;;
59006;SDS011;44792;52.760;6.726;2023-11-21T07:01:56;34.95;;;16.23;;
59006;SDS011;44792;52.760;6.726;2023-11-21T07:04:22;32.38;;;15.05;;
59006;SDS011;44792;52.760;6.726;2023-11-21T07:06:50;34.20;;;15.60;;
59006;SDS011;44792;52.760;6.726;2023-11-21T07:09:19;28.52;;;14.57;;
59006;SDS011;44792;52.760;6.726;2023-11-21T07:11:50;37.03;;;15.40;;
59006;SDS011;44792;52.760;6.726;2023-11-21T07:14:15;32.55;;;15.05;;
59006;SDS011;44792;52.760;6.726;2023-11-21T07:16:42;32.75;;;15.07;;
59006;SDS011;44792;52.760;6.726;2023-11-21T07:19:07;31.40;;;15.98;;
59006;SDS011;44792;52.760;6.726;2023-11-21T07:21:34;33.00;;;15.20;;
59006;SDS011;44792;52.760;6.726;2023-11-21T07:24:01;36.75;;;15.20;;
59006;SDS011;44792;52.760;6.726;2023-11-21T07:26:27;28.35;;;13.82;;
59006;SDS011;44792;52.760;6.726;2023-11-21T07:28:53;31.30;;;15.75;;
59006;SDS011;44792;52.760;6.726;2023-11-21T07:31:19;33.22;;;14.15;;
59006;SDS011;44792;52.760;6.726;2023-11-21T07:33:45;29.35;;;14.45;;
59006;SDS011;44792;52.760;6.726;2023-11-21T07:36:14;31.83;;;15.02;;
59006;SDS011;44792;52.760;6.726;2023-11-21T07:38:43;31.52;;;15.07;;
59006;SDS011;44792;52.760;6.726;2023-11-21T07:41:10;35.17;;;14.75;;
59006;SDS011;44792;52.760;6.726;2023-11-21T07:43:36;28.88;;;13.50;;
59006;SDS011;44792;52.760;6.726;2023-11-21T07:46:02;29.50;;;13.25;;
59006;SDS011;44792;52.760;6.726;2023-11-21T07:48:32;32.63;;;14.50;;
59006;SDS011;44792;52.760;6.726;2023-11-21T07:50:58;26.08;;;12.07;;
59006;SDS011;44792;52.760;6.726;2023-11-21T07:53:27;29.55;;;13.82;;
59006;SDS011;44792;52.760;6.726;2023-11-21T07:55:56;24.03;;;12.00;;
59006;SDS011;44792;52.760;6.726;2023-11-21T07:58:22;25.48;;;11.68;;
59006;SDS011;44792;52.760;6.726;2023-11-21T08:00:49;24.67;;;12.18;;
59006;SDS011;44792;52.760;6.726;2023-11-21T08:03:15;23.98;;;12.10;;
59006;SDS011;44792;52.760;6.726;2023-11-21T08:05:41;22.70;;;12.38;;
59006;SDS011;44792;52.760;6.726;2023-11-21T08:08:07;25.27;;;12.07;;
59006;SDS011;44792;52.760;6.726;2023-11-21T08:10:33;26.65;;;11.35;;
59006;SDS011;44792;52.760;6.726;2023-11-21T08:13:00;23.50;;;11.95;;
59006;SDS011;44792;52.760;6.726;2023-11-21T08:15:26;24.85;;;12.82;;
59006;SDS011;44792;52.760;6.726;2023-11-21T08:17:52;25.23;;;12.65;;
59006;SDS011;44792;52.760;6.726;2023-11-21T08:20:18;26.70;;;13.55;;
59006;SDS011;44792;52.760;6.726;2023-11-21T08:22:44;24.52;;;12.00;;
59006;SDS011;44792;52.760;6.726;2023-11-21T08:25:12;26.77;;;12.73;;
59006;SDS011;44792;52.760;6.726;2023-11-21T08:27:38;25.70;;;12.13;;
59006;SDS011;44792;52.760;6.726;2023-11-21T08:30:04;25.42;;;12.63;;
59006;SDS011;44792;52.760;6.726;2023-11-21T08:32:30;26.73;;;13.32;;
59006;SDS011;44792;52.760;6.726;2023-11-21T08:34:58;27.00;;;13.40;;
59006;SDS011;44792;52.760;6.726;2023-11-21T08:37:24;26.40;;;12.43;;
59006;SDS011;44792;52.760;6.726;2023-11-21T08:39:52;26.63;;;12.10;;
59006;SDS011;44792;52.760;6.726;2023-11-21T08:42:18;26.00;;;12.48;;
59006;SDS011;44792;52.760;6.726;2023-11-21T08:44:44;28.00;;;12.57;;
59006;SDS011;44792;52.760;6.726;2023-11-21T08:47:11;24.58;;;12.32;;
59006;SDS011;44792;52.760;6.726;2023-11-21T08:49:37;26.30;;;11.40;;
59006;SDS011;44792;52.760;6.726;2023-11-21T08:52:03;28.17;;;13.73;;
59006;SDS011;44792;52.760;6.726;2023-11-21T08:54:30;30.25;;;11.90;;
59006;SDS011;44792;52.760;6.726;2023-11-21T08:56:56;21.88;;;11.20;;
59006;SDS011;44792;52.760;6.726;2023-11-21T08:59:23;27.75;;;12.85;;
59006;SDS011;44792;52.760;6.726;2023-11-21T09:01:50;23.58;;;11.02;;
59006;SDS011;44792;52.760;6.726;2023-11-21T09:04:15;23.23;;;9.52;;
59006;SDS011;44792;52.760;6.726;2023-11-21T09:06:41;22.63;;;10.23;;
59006;SDS011;44792;52.760;6.726;2023-11-21T09:09:07;29.50;;;11.10;;
59006;SDS011;44792;52.760;6.726;2023-11-21T09:11:35;24.85;;;11.15;;
59006;SDS011;44792;52.760;6.726;2023-11-21T09:14:01;26.95;;;11.23;;
59006;SDS011;44792;52.760;6.726;2023-11-21T09:16:28;26.30;;;10.05;;
59006;SDS011;44792;52.760;6.726;2023-11-21T09:18:55;25.52;;;12.48;;
59006;SDS011;44792;52.760;6.726;2023-11-21T09:21:20;36.20;;;13.70;;
59006;SDS011;44792;52.760;6.726;2023-11-21T09:23:46;33.75;;;12.90;;
59006;SDS011;44792;52.760;6.726;2023-11-21T09:26:13;32.28;;;12.90;;
59006;SDS011;44792;52.760;6.726;2023-11-21T09:28:41;30.00;;;12.13;;
59006;SDS011;44792;52.760;6.726;2023-11-21T09:31:11;35.83;;;12.82;;
59006;SDS011;44792;52.760;6.726;2023-11-21T09:33:37;32.20;;;13.65;;
59006;SDS011;44792;52.760;6.726;2023-11-21T09:36:03;35.88;;;14.00;;
59006;SDS011;44792;52.760;6.726;2023-11-21T09:38:30;36.60;;;15.45;;
59006;SDS011;44792;52.760;6.726;2023-11-21T09:40:56;35.85;;;14.40;;
59006;SDS011;44792;52.760;6.726;2023-11-21T09:43:23;35.88;;;14.90;;
59006;SDS011;44792;52.760;6.726;2023-11-21T09:45:56;38.65;;;15.00;;
59006;SDS011;44792;52.760;6.726;2023-11-21T09:48:27;41.33;;;15.57;;
59006;SDS011;44792;52.760;6.726;2023-11-21T09:50:54;32.70;;;13.75;;
59006;SDS011;44792;52.760;6.726;2023-11-21T09:53:20;40.70;;;17.98;;
59006;SDS011;44792;52.760;6.726;2023-11-21T09:55:47;39.05;;;16.75;;
59006;SDS011;44792;52.760;6.726;2023-11-21T09:58:16;38.92;;;16.80;;
59006;SDS011;44792;52.760;6.726;2023-11-21T10:00:46;43.83;;;18.50;;
59006;SDS011;44792;52.760;6.726;2023-11-21T10:03:13;35.97;;;15.93;;
59006;SDS011;44792;52.760;6.726;2023-11-21T10:05:40;40.97;;;16.33;;
59006;SDS011;44792;52.760;6.726;2023-11-21T10:08:08;42.20;;;17.10;;
59006;SDS011;44792;52.760;6.726;2023-11-21T10:10:38;39.30;;;17.95;;
59006;SDS011;44792;52.760;6.726;2023-11-21T10:13:11;42.53;;;18.40;;
59006;SDS011;44792;52.760;6.726;2023-11-21T10:15:41;43.38;;;17.85;;
59006;SDS011;44792;52.760;6.726;2023-11-21T10:18:13;39.57;;;17.27;;
59006;SDS011;44792;52.760;6.726;2023-11-21T10:20:43;44.10;;;18.92;;
59006;SDS011;44792;52.760;6.726;2023-11-21T10:23:17;39.03;;;16.75;;
59006;SDS011;44792;52.760;6.726;2023-11-21T10:25:47;40.83;;;18.35;;
59006;SDS011;44792;52.760;6.726;2023-11-21T10:28:14;44.35;;;17.02;;
59006;SDS011;44792;52.760;6.726;2023-11-21T10:30:40;38.45;;;17.88;;
59006;SDS011;44792;52.760;6.726;2023-11-21T10:33:07;41.70;;;17.63;;
59006;SDS011;44792;52.760;6.726;2023-11-21T10:35:43;37.97;;;16.30;;
59006;SDS011;44792;52.760;6.726;2023-11-21T10:38:16;35.28;;;15.95;;
59006;SDS011;44792;52.760;6.726;2023-11-21T10:40:42;35.40;;;16.17;;
59006;SDS011;44792;52.760;6.726;2023-11-21T10:43:09;31.55;;;16.20;;
59006;SDS011;44792;52.760;6.726;2023-11-21T10:45:37;29.60;;;15.02;;
59006;SDS011;44792;52.760;6.726;2023-11-21T10:48:07;28.42;;;14.68;;
59006;SDS011;44792;52.760;6.726;2023-11-21T10:50:35;30.25;;;14.55;;
59006;SDS011;44792;52.760;6.726;2023-11-21T10:53:02;25.98;;;14.05;;
59006;SDS011;44792;52.760;6.726;2023-11-21T10:55:29;26.63;;;13.77;;
59006;SDS011;44792;52.760;6.726;2023-11-21T10:57:58;28.45;;;13.00;;
59006;SDS011;44792;52.760;6.726;2023-11-21T11:00:24;21.33;;;12.43;;
59006;SDS011;44792;52.760;6.726;2023-11-21T11:02:54;20.73;;;12.30;;
59006;SDS011;44792;52.760;6.726;2023-11-21T11:05:21;22.25;;;12.57;;
59006;SDS011;44792;52.760;6.726;2023-11-21T11:07:51;19.80;;;12.98;;
59006;SDS011;44792;52.760;6.726;2023-11-21T11:10:25;18.98;;;12.05;;
59006;SDS011;44792;52.760;6.726;2023-11-21T11:12:53;18.83;;;10.30;;
59006;SDS011;44792;52.760;6.726;2023-11-21T11:15:19;14.00;;;9.30;;
59006;SDS011;44792;52.760;6.726;2023-11-21T11:17:45;13.43;;;8.88;;
59006;SDS011;44792;52.760;6.726;2023-11-21T11:20:12;13.23;;;9.13;;
59006;SDS011;44792;52.760;6.726;2023-11-21T11:25:38;12.73;;;7.43;;
59006;SDS011;44792;52.760;6.726;2023-11-21T11:28:20;12.60;;;8.60;;
59006;SDS011;44792;52.760;6.726;2023-11-21T11:36:02;13.27;;;8.48;;
59006;SDS011;44792;52.760;6.726;2023-11-21T11:38:38;13.55;;;8.02;;
59006;SDS011;44792;52.760;6.726;2023-11-21T11:41:04;10.93;;;7.22;;
59006;SDS011;44792;52.760;6.726;2023-11-21T11:43:32;14.45;;;8.23;;
59006;SDS011;44792;52.760;6.726;2023-11-21T11:45:59;12.27;;;8.70;;
59006;SDS011;44792;52.760;6.726;2023-11-21T11:48:29;11.90;;;7.35;;
59006;SDS011;44792;52.760;6.726;2023-11-21T11:51:01;12.20;;;7.07;;
59006;SDS011;44792;52.760;6.726;2023-11-21T11:53:43;9.95;;;7.18;;
59006;SDS011;44792;52.760;6.726;2023-11-21T11:59:04;9.55;;;6.50;;
59006;SDS011;44792;52.760;6.726;2023-11-21T12:01:34;10.20;;;6.32;;
59006;SDS011;44792;52.760;6.726;2023-11-21T12:06:56;10.43;;;6.55;;
59006;SDS011;44792;52.760;6.726;2023-11-21T12:09:25;11.90;;;6.93;;
59006;SDS011;44792;52.760;6.726;2023-11-21T12:11:51;12.98;;;7.18;;
59006;SDS011;44792;52.760;6.726;2023-11-21T12:14:18;8.95;;;6.15;;
59006;SDS011;44792;52.760;6.726;2023-11-21T12:16:44;9.57;;;7.00;;
59006;SDS011;44792;52.760;6.726;2023-11-21T12:19:11;9.50;;;6.75;;
59006;SDS011;44792;52.760;6.726;2023-11-21T12:21:37;12.13;;;7.68;;
59006;SDS011;44792;52.760;6.726;2023-11-21T12:24:03;10.32;;;7.50;;
59006;SDS011;44792;52.760;6.726;2023-11-21T12:26:29;12.65;;;8.00;;
59006;SDS011;44792;52.760;6.726;2023-11-21T12:28:55;10.13;;;7.45;;
59006;SDS011;44792;52.760;6.726;2023-11-21T12:31:21;11.63;;;8.30;;
59006;SDS011;44792;52.760;6.726;2023-11-21T12:33:47;10.57;;;7.22;;
59006;SDS011;44792;52.760;6.726;2023-11-21T12:36:13;10.73;;;7.50;;
59006;SDS011;44792;52.760;6.726;2023-11-21T12:38:39;13.27;;;7.95;;
59006;SDS011;44792;52.760;6.726;2023-11-21T12:41:05;12.07;;;7.75;;
59006;SDS011;44792;52.760;6.726;2023-11-21T12:43:31;11.13;;;7.25;;
59006;SDS011;44792;52.760;6.726;2023-11-21T12:46:09;10.63;;;6.97;;
59006;SDS011;44792;52.760;6.726;2023-11-21T12:48:42;13.52;;;7.72;;
59006;SDS011;44792;52.760;6.726;2023-11-21T12:51:10;10.45;;;6.95;;
59006;SDS011;44792;52.760;6.726;2023-11-21T12:53:39;11.07;;;7.10;;
59006;SDS011;44792;52.760;6.726;2023-11-21T12:56:09;12.45;;;7.55;;
59006;SDS011;44792;52.760;6.726;2023-11-21T12:58:39;11.77;;;7.60;;
59006;SDS011;44792;52.760;6.726;2023-11-21T13:01:09;9.85;;;6.85;;
59006;SDS011;44792;52.760;6.726;2023-11-21T13:03:40;10.80;;;6.95;;
59006;SDS011;44792;52.760;6.726;2023-11-21T13:06:06;10.40;;;7.05;;
59006;SDS011;44792;52.760;6.726;2023-11-21T13:08:35;9.90;;;6.30;;
59006;SDS011;44792;52.760;6.726;2023-11-21T13:11:04;9.82;;;6.60;;
59006;SDS011;44792;52.760;6.726;2023-11-21T13:13:31;11.23;;;7.00;;
59006;SDS011;44792;52.760;6.726;2023-11-21T13:16:01;14.95;;;7.55;;
59006;SDS011;44792;52.760;6.726;2023-11-21T13:18:30;9.50;;;6.20;;
59006;SDS011;44792;52.760;6.726;2023-11-21T13:21:01;11.48;;;7.25;;
59006;SDS011;44792;52.760;6.726;2023-11-21T15:40:44;9.07;;;5.20;;
59006;SDS011;44792;52.760;6.726;2023-11-21T15:43:11;8.35;;;5.38;;
59006;SDS011;44792;52.760;6.726;2023-11-21T15:45:38;7.85;;;5.07;;
59006;SDS011;44792;52.760;6.726;2023-11-21T15:48:04;7.80;;;4.97;;
59006;SDS011;44792;52.760;6.726;2023-11-21T15:50:30;6.10;;;4.97;;
59006;SDS011;44792;52.760;6.726;2023-11-21T15:52:57;6.65;;;4.63;;
59006;SDS011;44792;52.760;6.726;2023-11-21T15:55:23;8.77;;;5.05;;
59006;SDS011;44792;52.760;6.726;2023-11-21T15:57:50;7.72;;;5.68;;
59006;SDS011;44792;52.760;6.726;2023-11-21T16:00:16;6.78;;;5.05;;
59006;SDS011;44792;52.760;6.726;2023-11-21T16:02:45;5.93;;;4.45;;
59006;SDS011;44792;52.760;6.726;2023-11-21T16:05:11;7.47;;;4.90;;
59006;SDS011;44792;52.760;6.726;2023-11-21T16:07:42;7.03;;;5.32;;
59006;SDS011;44792;52.760;6.726;2023-11-21T16:10:09;8.27;;;6.13;;
59006;SDS011;44792;52.760;6.726;2023-11-21T16:12:38;8.35;;;4.70;;
59006;SDS011;44792;52.760;6.726;2023-11-21T16:15:05;10.75;;;5.20;;
59006;SDS011;44792;52.760;6.726;2023-11-21T16:17:35;7.32;;;5.22;;
59006;SDS011;44792;52.760;6.726;2023-11-21T16:20:02;8.25;;;5.55;;
59006;SDS011;44792;52.760;6.726;2023-11-21T16:22:31;9.57;;;5.03;;
59006;SDS011;44792;52.760;6.726;2023-11-21T16:24:58;6.53;;;4.97;;
59006;SDS011;44792;52.760;6.726;2023-11-21T16:27:25;8.48;;;5.32;;
59006;SDS011;44792;52.760;6.726;2023-11-21T16:29:51;11.43;;;10.32;;
59006;SDS011;44792;52.760;6.726;2023-11-21T16:32:17;18.75;;;16.00;;
59006;SDS011;44792;52.760;6.726;2023-11-21T16:34:43;15.52;;;11.88;;
59006;SDS011;44792;52.760;6.726;2023-11-21T16:37:10;7.78;;;5.38;;
59006;SDS011;44792;52.760;6.726;2023-11-21T16:39:36;8.13;;;5.05;;
59006;SDS011;44792;52.760;6.726;2023-11-21T16:42:03;8.65;;;6.20;;
59006;SDS011;44792;52.760;6.726;2023-11-21T16:44:29;8.68;;;4.80;;
59006;SDS011;44792;52.760;6.726;2023-11-21T16:46:55;8.40;;;5.35;;
59006;SDS011;44792;52.760;6.726;2023-11-21T16:49:33;11.55;;;4.97;;
59006;SDS011;44792;52.760;6.726;2023-11-21T16:51:58;7.90;;;4.90;;
59006;SDS011;44792;52.760;6.726;2023-11-21T16:54:26;6.85;;;4.85;;
59006;SDS011;44792;52.760;6.726;2023-11-21T16:56:52;6.93;;;4.63;;